Cromwell, Washington
Current Conditions -  °F | °C
As of 1:53 PM on Friday 31 Oct 2014 (Local Time) from KTIW Reporting Station
Overcast Overcast  
Wind Chill: 53°   Ceiling: 1000
Heat Index: 53°   Visibility: 10mi
Dew Point: 48°   Wind: 9mph
Humidity: 83%   Direction: 200°SSW
Pressure: 29.84"   Gusts: NA
Location:  47.2986°N, 122.616°W
Report Text: KTIW 312053Z 20008KT 10SM BKN010 OVC041 12/09 A2984 RMK AO2 SLP104 60001 T01170089 53008
Loading
Personal Weather Stations






























Interactive Weather Map
Tropical Storm Tracking
New forecast layout! Learn more

10-Day Weather Forecast

Advertisements
Track Severe Weather on mobile